sensor_id;sensor_type;location;lat;lon;timestamp;pressure;altitude;pressure_sealevel;temperature
20848;BMP180;10584;50.854;12.902;2022-08-01T08:11:02;98049.00;;;18.70
20848;BMP180;10584;50.854;12.902;2022-08-01T08:16:05;98052.00;;;19.40
20848;BMP180;10584;50.854;12.902;2022-08-01T08:21:08;98057.00;;;19.60
20848;BMP180;10584;50.854;12.902;2022-08-01T08:26:11;98041.00;;;20.00
20848;BMP180;10584;50.854;12.902;2022-08-01T08:31:14;98051.00;;;20.10
20848;BMP180;10584;50.854;12.902;2022-08-01T08:36:27;98051.00;;;20.60
20848;BMP180;10584;50.854;12.902;2022-08-01T08:41:34;98045.00;;;20.50
20848;BMP180;10584;50.854;12.902;2022-08-01T08:46:47;98058.00;;;20.70
20848;BMP180;10584;50.854;12.902;2022-08-01T08:51:51;98064.00;;;20.90
20848;BMP180;10584;50.854;12.902;2022-08-01T08:56:55;98071.00;;;20.90
20848;BMP180;10584;50.854;12.902;2022-08-01T09:01:59;98067.00;;;20.80
20848;BMP180;10584;50.854;12.902;2022-08-01T09:07:03;98066.00;;;21.10
20848;BMP180;10584;50.854;12.902;2022-08-01T09:12:06;98066.00;;;21.20
20848;BMP180;10584;50.854;12.902;2022-08-01T09:17:10;98070.00;;;21.40
20848;BMP180;10584;50.854;12.902;2022-08-01T09:22:17;98068.00;;;21.30
20848;BMP180;10584;50.854;12.902;2022-08-01T09:27:21;98079.00;;;21.50
20848;BMP180;10584;50.854;12.902;2022-08-01T09:32:29;98077.00;;;21.50
20848;BMP180;10584;50.854;12.902;2022-08-01T09:37:38;98079.00;;;21.60
20848;BMP180;10584;50.854;12.902;2022-08-01T09:42:48;98081.00;;;21.70
20848;BMP180;10584;50.854;12.902;2022-08-01T09:47:54;98078.00;;;21.90
20848;BMP180;10584;50.854;12.902;2022-08-01T09:52:57;98086.00;;;22.50
20848;BMP180;10584;50.854;12.902;2022-08-01T09:58:00;98093.00;;;23.00
20848;BMP180;10584;50.854;12.902;2022-08-01T10:03:23;98095.00;;;23.00
20848;BMP180;10584;50.854;12.902;2022-08-01T10:08:27;98083.00;;;22.70
20848;BMP180;10584;50.854;12.902;2022-08-01T10:13:30;98077.00;;;22.50
20848;BMP180;10584;50.854;12.902;2022-08-01T10:18:40;98082.00;;;22.90
20848;BMP180;10584;50.854;12.902;2022-08-01T10:23:46;98089.00;;;23.00
20848;BMP180;10584;50.854;12.902;2022-08-01T10:28:53;98078.00;;;23.30
20848;BMP180;10584;50.854;12.902;2022-08-01T10:33:58;98081.00;;;23.30
20848;BMP180;10584;50.854;12.902;2022-08-01T10:39:01;98077.00;;;23.30
20848;BMP180;10584;50.854;12.902;2022-08-01T10:44:07;98081.00;;;23.00
20848;BMP180;10584;50.854;12.902;2022-08-01T10:49:15;98091.00;;;22.70
20848;BMP180;10584;50.854;12.902;2022-08-01T10:54:20;98086.00;;;22.90
20848;BMP180;10584;50.854;12.902;2022-08-01T10:59:28;98084.00;;;23.00
20848;BMP180;10584;50.854;12.902;2022-08-01T11:05:01;98090.00;;;23.00
20848;BMP180;10584;50.854;12.902;2022-08-01T11:10:53;98091.00;;;23.10
20848;BMP180;10584;50.854;12.902;2022-08-01T11:15:40;98085.00;;;23.30
20848;BMP180;10584;50.854;12.902;2022-08-01T11:20:57;98082.00;;;23.10
20848;BMP180;10584;50.854;12.902;2022-08-01T11:26:21;98078.00;;;23.40
20848;BMP180;10584;50.854;12.902;2022-08-01T11:31:32;98075.00;;;23.90
20848;BMP180;10584;50.854;12.902;2022-08-01T11:36:39;98079.00;;;24.30
20848;BMP180;10584;50.854;12.902;2022-08-01T11:42:18;98085.00;;;25.00
20848;BMP180;10584;50.854;12.902;2022-08-01T11:47:42;98076.00;;;25.00
20848;BMP180;10584;50.854;12.902;2022-08-01T11:52:45;98090.00;;;24.80
20848;BMP180;10584;50.854;12.902;2022-08-01T11:57:48;98086.00;;;24.50
20848;BMP180;10584;50.854;12.902;2022-08-01T12:03:05;98076.00;;;24.60
20848;BMP180;10584;50.854;12.902;2022-08-01T12:08:09;98088.00;;;24.60
20848;BMP180;10584;50.854;12.902;2022-08-01T12:13:12;98080.00;;;25.10
20848;BMP180;10584;50.854;12.902;2022-08-01T12:18:14;98092.00;;;24.90
20848;BMP180;10584;50.854;12.902;2022-08-01T12:23:17;98088.00;;;24.70
20848;BMP180;10584;50.854;12.902;2022-08-01T12:28:21;98078.00;;;24.90
20848;BMP180;10584;50.854;12.902;2022-08-01T12:33:25;98092.00;;;25.10
20848;BMP180;10584;50.854;12.902;2022-08-01T12:38:28;98107.00;;;24.70
20848;BMP180;10584;50.854;12.902;2022-08-01T12:43:32;98099.00;;;24.50
20848;BMP180;10584;50.854;12.902;2022-08-01T12:48:37;98100.00;;;24.50
20848;BMP180;10584;50.854;12.902;2022-08-01T12:53:41;98101.00;;;24.30
20848;BMP180;10584;50.854;12.902;2022-08-01T12:58:45;98100.00;;;24.30
20848;BMP180;10584;50.854;12.902;2022-08-01T13:04:00;98092.00;;;24.90
20848;BMP180;10584;50.854;12.902;2022-08-01T13:09:10;98097.00;;;25.30
20848;BMP180;10584;50.854;12.902;2022-08-01T13:14:28;98110.00;;;25.30
20848;BMP180;10584;50.854;12.902;2022-08-01T13:19:44;98116.00;;;24.90
20848;BMP180;10584;50.854;12.902;2022-08-01T13:24:47;98100.00;;;25.00
20848;BMP180;10584;50.854;12.902;2022-08-01T13:29:50;98107.00;;;25.00
20848;BMP180;10584;50.854;12.902;2022-08-01T13:35:04;98101.00;;;25.10
20848;BMP180;10584;50.854;12.902;2022-08-01T13:40:09;98102.00;;;25.10
20848;BMP180;10584;50.854;12.902;2022-08-01T13:45:12;98099.00;;;24.80
20848;BMP180;10584;50.854;12.902;2022-08-01T13:50:16;98100.00;;;24.30
20848;BMP180;10584;50.854;12.902;2022-08-01T13:55:19;98109.00;;;24.30
20848;BMP180;10584;50.854;12.902;2022-08-01T14:00:22;98119.00;;;24.30
20848;BMP180;10584;50.854;12.902;2022-08-01T14:05:25;98118.00;;;23.80
20848;BMP180;10584;50.854;12.902;2022-08-01T14:10:27;98121.00;;;24.10
20848;BMP180;10584;50.854;12.902;2022-08-01T14:15:32;98125.00;;;24.40
20848;BMP180;10584;50.854;12.902;2022-08-01T14:20:40;98126.00;;;24.70
20848;BMP180;10584;50.854;12.902;2022-08-01T14:25:42;98126.00;;;24.80
20848;BMP180;10584;50.854;12.902;2022-08-01T14:31:06;98132.00;;;24.80
20848;BMP180;10584;50.854;12.902;2022-08-01T14:36:08;98125.00;;;24.70
20848;BMP180;10584;50.854;12.902;2022-08-01T14:41:31;98116.00;;;24.80
20848;BMP180;10584;50.854;12.902;2022-08-01T14:46:34;98123.00;;;25.00
20848;BMP180;10584;50.854;12.902;2022-08-01T14:51:37;98128.00;;;25.00
20848;BMP180;10584;50.854;12.902;2022-08-01T14:56:40;98135.00;;;24.90
20848;BMP180;10584;50.854;12.902;2022-08-01T15:01:43;98136.00;;;24.80
20848;BMP180;10584;50.854;12.902;2022-08-01T15:06:47;98135.00;;;24.70
20848;BMP180;10584;50.854;12.902;2022-08-01T15:11:50;98129.00;;;25.10
20848;BMP180;10584;50.854;12.902;2022-08-01T15:16:53;98137.00;;;25.00
20848;BMP180;10584;50.854;12.902;2022-08-01T15:21:56;98140.00;;;25.30
20848;BMP180;10584;50.854;12.902;2022-08-01T15:27:00;98145.00;;;25.00
20848;BMP180;10584;50.854;12.902;2022-08-01T15:32:04;98130.00;;;24.90
20848;BMP180;10584;50.854;12.902;2022-08-01T15:37:07;98137.00;;;25.10
20848;BMP180;10584;50.854;12.902;2022-08-01T15:42:13;98143.00;;;25.50
20848;BMP180;10584;50.854;12.902;2022-08-01T15:47:27;98137.00;;;25.70
20848;BMP180;10584;50.854;12.902;2022-08-01T15:52:29;98142.00;;;25.70
20848;BMP180;10584;50.854;12.902;2022-08-01T15:57:33;98149.00;;;25.60
20848;BMP180;10584;50.854;12.902;2022-08-01T16:02:36;98153.00;;;25.50
20848;BMP180;10584;50.854;12.902;2022-08-01T16:07:39;98153.00;;;25.20
20848;BMP180;10584;50.854;12.902;2022-08-01T16:13:01;98153.00;;;25.00
20848;BMP180;10584;50.854;12.902;2022-08-01T16:18:10;98159.00;;;24.80
20848;BMP180;10584;50.854;12.902;2022-08-01T16:23:16;98159.00;;;24.60
20848;BMP180;10584;50.854;12.902;2022-08-01T16:28:19;98161.00;;;24.70
20848;BMP180;10584;50.854;12.902;2022-08-01T16:33:23;98163.00;;;24.70
20848;BMP180;10584;50.854;12.902;2022-08-01T16:38:46;98158.00;;;24.70
20848;BMP180;10584;50.854;12.902;2022-08-01T16:43:51;98156.00;;;24.90
20848;BMP180;10584;50.854;12.902;2022-08-01T16:48:55;98157.00;;;24.80
20848;BMP180;10584;50.854;12.902;2022-08-01T16:53:58;98160.00;;;24.90
20848;BMP180;10584;50.854;12.902;2022-08-01T16:59:01;98158.00;;;24.70
20848;BMP180;10584;50.854;12.902;2022-08-01T17:04:04;98153.00;;;24.50
20848;BMP180;10584;50.854;12.902;2022-08-01T17:09:07;98152.00;;;24.60
20848;BMP180;10584;50.854;12.902;2022-08-01T17:14:10;98152.00;;;24.20
20848;BMP180;10584;50.854;12.902;2022-08-01T17:19:13;98159.00;;;24.10
20848;BMP180;10584;50.854;12.902;2022-08-01T17:24:16;98162.00;;;24.00
20848;BMP180;10584;50.854;12.902;2022-08-01T17:29:20;98176.00;;;23.70
20848;BMP180;10584;50.854;12.902;2022-08-01T17:34:23;98171.00;;;23.80
20848;BMP180;10584;50.854;12.902;2022-08-01T17:39:25;98166.00;;;23.70
20848;BMP180;10584;50.854;12.902;2022-08-01T17:44:41;98173.00;;;23.70
20848;BMP180;10584;50.854;12.902;2022-08-01T17:49:50;98184.00;;;23.40
20848;BMP180;10584;50.854;12.902;2022-08-01T17:54:56;98185.00;;;23.30
20848;BMP180;10584;50.854;12.902;2022-08-01T17:59:59;98185.00;;;23.30
20848;BMP180;10584;50.854;12.902;2022-08-01T18:05:05;98184.00;;;23.20
20848;BMP180;10584;50.854;12.902;2022-08-01T18:10:12;98181.00;;;23.30
20848;BMP180;10584;50.854;12.902;2022-08-01T18:15:18;98182.00;;;23.30
20848;BMP180;10584;50.854;12.902;2022-08-01T18:20:28;98180.00;;;23.40
20848;BMP180;10584;50.854;12.902;2022-08-01T18:25:31;98193.00;;;23.30
20848;BMP180;10584;50.854;12.902;2022-08-01T18:30:35;98198.00;;;23.20
20848;BMP180;10584;50.854;12.902;2022-08-01T18:35:38;98198.00;;;23.00
20848;BMP180;10584;50.854;12.902;2022-08-01T18:40:55;98196.00;;;22.80
20848;BMP180;10584;50.854;12.902;2022-08-01T18:45:57;98203.00;;;22.70
20848;BMP180;10584;50.854;12.902;2022-08-01T18:51:02;98214.00;;;22.50
20848;BMP180;10584;50.854;12.902;2022-08-01T18:56:10;98220.00;;;22.30
20848;BMP180;10584;50.854;12.902;2022-08-01T19:01:13;98244.00;;;22.00
20848;BMP180;10584;50.854;12.902;2022-08-01T19:06:16;98238.00;;;21.80
20848;BMP180;10584;50.854;12.902;2022-08-01T19:11:19;98240.00;;;21.60
20848;BMP180;10584;50.854;12.902;2022-08-01T19:16:22;98250.00;;;21.40
20848;BMP180;10584;50.854;12.902;2022-08-01T19:21:25;98258.00;;;21.20
20848;BMP180;10584;50.854;12.902;2022-08-01T19:26:29;98266.00;;;21.00
20848;BMP180;10584;50.854;12.902;2022-08-01T19:31:33;98270.00;;;20.80
20848;BMP180;10584;50.854;12.902;2022-08-01T19:36:40;98280.00;;;20.60
20848;BMP180;10584;50.854;12.902;2022-08-01T19:41:46;98289.00;;;20.40
20848;BMP180;10584;50.854;12.902;2022-08-01T19:46:53;98284.00;;;20.30
20848;BMP180;10584;50.854;12.902;2022-08-01T19:52:01;98287.00;;;20.10
